createdAt,value
2022-08-21T00:02:23.412Z,2.40
2022-08-21T00:04:57.971Z,2.70
2022-08-21T00:07:30.192Z,2.87
2022-08-21T00:10:02.424Z,2.57
2022-08-21T00:12:36.044Z,2.70
2022-08-21T00:15:12.469Z,2.67
2022-08-21T00:17:50.707Z,2.70
2022-08-21T00:20:24.049Z,2.60
2022-08-21T00:22:57.325Z,2.80
2022-08-21T00:25:29.862Z,2.77
2022-08-21T00:28:02.970Z,2.38
2022-08-21T00:30:36.307Z,2.70
2022-08-21T00:33:10.056Z,2.73
2022-08-21T00:35:44.246Z,3.27
2022-08-21T00:38:16.423Z,2.30
2022-08-21T00:40:52.275Z,2.63
2022-08-21T00:43:31.491Z,2.75
2022-08-21T00:46:07.502Z,3.20
2022-08-21T00:48:39.582Z,3.10
2022-08-21T00:51:19.599Z,3.10
2022-08-21T00:54:03.614Z,3.13
2022-08-21T00:56:36.119Z,2.70
2022-08-21T00:59:09.065Z,2.60
2022-08-21T01:01:41.570Z,2.70
2022-08-21T01:04:14.164Z,3.08
2022-08-21T01:06:47.878Z,3.13
2022-08-21T01:09:20.442Z,3.05
2022-08-21T01:11:52.901Z,3.17
2022-08-21T01:14:25.221Z,2.45
2022-08-21T01:16:59.171Z,3.17
2022-08-21T01:19:51.213Z,2.50
2022-08-21T01:22:23.298Z,3.05
2022-08-21T01:24:55.350Z,3.03
2022-08-21T01:27:27.353Z,3.03
2022-08-21T01:30:05.681Z,2.83
2022-08-21T01:32:44.272Z,2.65
2022-08-21T01:35:18.295Z,3.40
2022-08-21T01:37:51.126Z,2.80
2022-08-21T01:40:23.283Z,3.00
2022-08-21T01:42:55.368Z,2.95
2022-08-21T01:45:27.574Z,3.05
2022-08-21T01:47:59.666Z,3.00
2022-08-21T01:50:32.492Z,2.92
2022-08-21T01:53:05.452Z,3.60
2022-08-21T01:55:37.535Z,3.17
2022-08-21T01:58:09.531Z,3.15
2022-08-21T02:00:41.622Z,3.00
2022-08-21T02:03:13.683Z,3.28
2022-08-21T02:05:59.170Z,2.60
2022-08-21T02:08:31.886Z,2.83
2022-08-21T02:11:04.379Z,3.40
2022-08-21T02:13:36.651Z,3.88
2022-08-21T02:16:09.458Z,2.92
2022-08-21T02:18:41.967Z,3.03
2022-08-21T02:21:14.515Z,3.22
2022-08-21T02:23:46.998Z,3.15
2022-08-21T02:26:19.124Z,3.40
2022-08-21T02:28:51.274Z,3.15
2022-08-21T02:31:23.895Z,3.10
2022-08-21T02:33:56.418Z,2.90
2022-08-21T02:36:29.300Z,3.40
2022-08-21T02:39:01.740Z,2.90
2022-08-21T02:41:34.027Z,3.42
2022-08-21T02:44:06.068Z,3.22
2022-08-21T02:46:38.120Z,3.30
2022-08-21T02:49:10.166Z,3.20
2022-08-21T02:51:42.354Z,3.60
2022-08-21T02:54:15.087Z,3.50
2022-08-21T02:56:47.092Z,3.75
2022-08-21T02:59:19.197Z,3.30
2022-08-21T03:01:51.266Z,4.03
2022-08-21T03:04:23.451Z,3.20
2022-08-21T03:06:55.407Z,3.67
2022-08-21T03:09:27.494Z,4.00
2022-08-21T03:11:59.617Z,3.72
2022-08-21T03:14:31.575Z,3.35
2022-08-21T03:17:03.622Z,2.88
2022-08-21T03:19:36.464Z,3.55
2022-08-21T03:22:08.458Z,3.83
2022-08-21T03:24:40.486Z,3.60
2022-08-21T03:27:16.947Z,4.03
2022-08-21T03:29:49.595Z,3.80
2022-08-21T03:32:22.416Z,3.00
2022-08-21T03:34:54.459Z,3.50
2022-08-21T03:37:27.055Z,3.85
2022-08-21T03:39:59.299Z,3.65
2022-08-21T03:42:31.428Z,3.20
2022-08-21T03:45:04.654Z,3.97
2022-08-21T03:47:37.562Z,3.83
2022-08-21T03:50:09.952Z,3.60
2022-08-21T03:52:42.522Z,3.70
2022-08-21T03:55:14.755Z,3.90
2022-08-21T03:57:47.144Z,3.60
2022-08-21T04:00:20.486Z,4.57
2022-08-21T04:02:53.082Z,4.00
2022-08-21T04:05:28.286Z,3.95
2022-08-21T04:08:04.215Z,4.20
2022-08-21T04:10:38.891Z,4.10
2022-08-21T04:13:11.636Z,3.90
2022-08-21T04:15:43.718Z,4.47
2022-08-21T04:18:16.387Z,4.25
2022-08-21T04:20:52.342Z,4.15
2022-08-21T04:23:25.864Z,4.30
2022-08-21T04:25:58.299Z,3.85
2022-08-21T04:28:31.227Z,3.90
2022-08-21T04:31:03.446Z,4.43
2022-08-21T04:33:35.632Z,3.78
2022-08-21T04:36:08.094Z,4.53
2022-08-21T04:38:44.603Z,4.13
2022-08-21T04:41:16.844Z,3.70
2022-08-21T04:43:57.298Z,3.65
2022-08-21T04:46:30.424Z,3.90
2022-08-21T04:49:02.582Z,3.90
2022-08-21T04:51:38.870Z,3.95
2022-08-21T04:54:15.603Z,3.85
2022-08-21T04:56:55.275Z,4.38
2022-08-21T04:59:37.313Z,3.72
2022-08-21T05:02:14.794Z,3.70
2022-08-21T05:04:51.895Z,4.38
2022-08-21T05:07:42.482Z,3.65
2022-08-21T05:10:16.202Z,4.53
2022-08-21T05:12:48.375Z,4.47
2022-08-21T05:15:20.806Z,4.00
2022-08-21T05:18:00.770Z,3.90
2022-08-21T05:20:36.921Z,4.40
2022-08-21T05:23:11.423Z,4.65
2022-08-21T05:25:44.976Z,3.92
2022-08-21T05:28:18.948Z,4.53
2022-08-21T05:30:52.171Z,3.95
2022-08-21T05:33:24.498Z,4.35
2022-08-21T05:35:57.329Z,5.15
2022-08-21T05:38:29.569Z,4.05
2022-08-21T05:41:01.610Z,4.63
2022-08-21T05:43:37.076Z,5.38
2022-08-21T05:46:09.647Z,3.75
2022-08-21T05:48:41.833Z,4.35
2022-08-21T05:51:16.114Z,4.50
2022-08-21T05:53:48.599Z,4.10
2022-08-21T05:56:20.630Z,4.50
2022-08-21T05:58:53.134Z,4.88
2022-08-21T06:01:25.848Z,4.40
2022-08-21T06:03:57.898Z,4.03
2022-08-21T06:06:30.154Z,4.25
2022-08-21T06:09:03.409Z,4.40
2022-08-21T06:11:36.377Z,4.38
2022-08-21T06:14:08.785Z,4.70
2022-08-21T06:16:41.016Z,4.00
2022-08-21T06:19:13.432Z,3.87
2022-08-21T06:21:45.442Z,4.00
2022-08-21T06:24:17.408Z,3.70
2022-08-21T06:26:49.461Z,3.43
2022-08-21T06:29:22.483Z,3.90
2022-08-21T06:31:55.128Z,3.13
2022-08-21T06:34:28.275Z,3.43
2022-08-21T06:37:00.645Z,3.13
2022-08-21T06:39:33.335Z,2.70
2022-08-21T06:42:13.851Z,3.37
2022-08-21T06:44:48.658Z,3.10
2022-08-21T06:47:21.210Z,2.70
2022-08-21T06:49:53.716Z,3.50
2022-08-21T06:52:26.030Z,3.57
2022-08-21T06:54:58.060Z,2.60
2022-08-21T06:57:30.079Z,3.10
2022-08-21T07:00:05.137Z,2.90
2022-08-21T07:02:38.261Z,3.27
2022-08-21T07:05:18.410Z,2.60
2022-08-21T07:07:50.756Z,2.93
2022-08-21T07:10:23.278Z,2.80
2022-08-21T07:13:00.402Z,3.00
2022-08-21T07:15:33.474Z,3.00
2022-08-21T07:18:06.125Z,2.83
2022-08-21T07:20:38.459Z,2.80
2022-08-21T07:23:29.851Z,3.70
2022-08-21T07:26:04.410Z,3.23
2022-08-21T07:28:36.927Z,3.10
2022-08-21T07:31:11.271Z,3.10
2022-08-21T07:33:47.205Z,2.80
2022-08-21T07:36:19.467Z,3.27
2022-08-21T07:38:52.558Z,2.97
2022-08-21T07:41:29.479Z,3.20
2022-08-21T07:44:01.943Z,2.90
2022-08-21T07:46:34.227Z,2.70
2022-08-21T07:49:06.377Z,3.20
2022-08-21T07:51:38.411Z,3.30
2022-08-21T07:54:10.620Z,3.30
2022-08-21T07:56:49.277Z,2.97
2022-08-21T07:59:21.355Z,3.00
2022-08-21T08:01:53.365Z,3.17
2022-08-21T08:04:26.573Z,3.40
2022-08-21T08:06:58.963Z,3.30
2022-08-21T08:09:31.003Z,3.37
2022-08-21T08:12:03.545Z,3.20
2022-08-21T08:14:36.197Z,3.63
2022-08-21T08:17:08.284Z,4.27
2022-08-21T08:19:40.673Z,3.50
2022-08-21T08:22:16.998Z,3.27
2022-08-21T08:24:53.748Z,3.53
2022-08-21T08:27:26.271Z,3.40
2022-08-21T08:29:58.800Z,3.67
2022-08-21T08:32:30.857Z,3.07
2022-08-21T08:35:03.204Z,3.87
2022-08-21T08:37:41.358Z,3.67
2022-08-21T08:40:34.305Z,4.07
2022-08-21T08:43:14.864Z,3.50
2022-08-21T08:45:51.906Z,3.47
2022-08-21T08:48:53.803Z,3.90
2022-08-21T08:51:40.616Z,4.63
2022-08-21T08:54:45.004Z,3.23
2022-08-21T08:57:25.473Z,3.33
2022-08-21T09:00:02.514Z,3.97
2022-08-21T09:02:41.433Z,4.07
2022-08-21T09:05:28.288Z,3.80
2022-08-21T09:08:29.199Z,3.80
2022-08-21T09:11:54.833Z,4.20
2022-08-21T09:15:01.764Z,3.93
2022-08-21T09:18:10.500Z,3.93
2022-08-21T09:21:48.765Z,3.80
2022-08-21T09:24:50.003Z,3.90
2022-08-21T09:27:43.721Z,3.90
2022-08-21T09:30:16.131Z,3.30
2022-08-21T09:32:49.178Z,3.53
2022-08-21T09:35:23.754Z,3.70
2022-08-21T09:37:59.065Z,3.60
2022-08-21T09:40:45.753Z,3.57
2022-08-21T09:43:32.252Z,3.70
2022-08-21T09:46:10.978Z,3.63
2022-08-21T09:48:55.456Z,4.37
2022-08-21T09:51:37.940Z,3.60
2022-08-21T09:54:36.203Z,3.30
2022-08-21T09:57:29.606Z,3.27
2022-08-21T10:00:21.131Z,3.03
2022-08-21T10:03:20.678Z,3.03
2022-08-21T10:06:00.303Z,3.40
2022-08-21T10:08:39.027Z,3.70
2022-08-21T10:11:15.317Z,3.50
2022-08-21T10:14:19.812Z,3.53
2022-08-21T10:17:32.789Z,3.40
2022-08-21T10:20:43.517Z,3.60
2022-08-21T10:23:40.902Z,3.20
2022-08-21T10:27:08.874Z,3.67
2022-08-21T10:30:04.665Z,3.23
2022-08-21T10:33:14.604Z,3.33
2022-08-21T10:36:21.141Z,3.97
2022-08-21T10:39:36.236Z,3.80
2022-08-21T10:42:50.220Z,3.93
2022-08-21T10:45:45.086Z,3.50
2022-08-21T10:49:04.087Z,3.30
2022-08-21T10:51:57.301Z,4.07
2022-08-21T10:54:49.087Z,3.60
2022-08-21T10:57:41.923Z,3.30
2022-08-21T11:00:50.950Z,3.57
2022-08-21T11:03:40.221Z,3.70
2022-08-21T11:06:21.500Z,3.53
2022-08-21T11:09:10.357Z,3.60
2022-08-21T11:12:12.277Z,3.57
2022-08-21T11:15:29.005Z,3.30
2022-08-21T11:18:24.072Z,3.40
2022-08-21T11:21:37.384Z,3.67
2022-08-21T11:24:41.055Z,3.20
2022-08-21T11:27:29.150Z,3.27
2022-08-21T11:30:11.005Z,3.70
2022-08-21T11:32:52.457Z,3.17
2022-08-21T11:35:54.912Z,3.40
2022-08-21T11:38:48.237Z,3.03
2022-08-21T11:41:31.969Z,3.23
2022-08-21T11:44:30.057Z,3.57
2022-08-21T11:47:53.973Z,3.80
2022-08-21T11:50:47.502Z,3.70
2022-08-21T11:53:29.794Z,3.90
2022-08-21T11:56:17.933Z,2.90
2022-08-21T11:59:05.773Z,3.20
2022-08-21T12:01:46.275Z,3.03
2022-08-21T12:04:32.856Z,3.47
2022-08-21T12:07:19.069Z,3.30
2022-08-21T12:10:18.357Z,3.53
2022-08-21T12:13:22.335Z,3.50
2022-08-21T12:16:17.184Z,3.40
2022-08-21T12:19:10.456Z,2.90
2022-08-21T12:22:06.126Z,3.10
2022-08-21T12:24:48.883Z,3.47
2022-08-21T12:27:30.557Z,3.30
2022-08-21T12:30:44.417Z,2.60
2022-08-21T12:33:26.022Z,3.20
2022-08-21T12:36:12.744Z,3.00
2022-08-21T12:39:14.535Z,2.97
2022-08-21T12:42:02.547Z,3.10
2022-08-21T12:45:03.173Z,3.13
2022-08-21T12:48:12.701Z,3.57
2022-08-21T12:51:17.264Z,3.00
2022-08-21T12:53:59.888Z,2.70
2022-08-21T12:56:34.902Z,2.67
2022-08-21T12:59:14.535Z,3.00
2022-08-21T13:01:50.553Z,3.23
2022-08-21T13:04:34.840Z,3.00
2022-08-21T13:07:17.046Z,2.53
2022-08-21T13:10:17.516Z,3.00
2022-08-21T13:13:12.777Z,3.00
2022-08-21T13:16:02.865Z,2.97
2022-08-21T13:19:02.946Z,3.20
2022-08-21T13:21:43.053Z,3.50
2022-08-21T13:27:29.192Z,3.03
2022-08-21T13:30:18.430Z,3.40
2022-08-21T13:32:58.241Z,5.17
2022-08-21T13:35:55.444Z,2.70
2022-08-21T13:38:47.684Z,2.90
2022-08-21T13:41:28.356Z,2.97
2022-08-21T13:44:20.783Z,2.97
2022-08-21T13:46:56.790Z,3.30
2022-08-21T13:49:40.222Z,3.10
2022-08-21T13:52:21.690Z,3.03
2022-08-21T13:54:59.577Z,2.93
2022-08-21T13:57:40.283Z,2.73
2022-08-21T14:00:28.100Z,2.97
2022-08-21T14:03:09.835Z,3.10
2022-08-21T14:05:57.233Z,2.83
2022-08-21T14:08:36.697Z,3.27
2022-08-21T14:11:13.112Z,3.17
2022-08-21T14:13:50.355Z,2.90
2022-08-21T14:16:45.893Z,2.80
2022-08-21T14:19:48.774Z,3.93
2022-08-21T14:22:44.411Z,3.30
2022-08-21T14:25:24.070Z,3.73
2022-08-21T14:28:11.335Z,3.50
2022-08-21T14:31:19.604Z,2.67
2022-08-21T14:33:52.804Z,3.10
2022-08-21T14:36:26.379Z,2.47
2022-08-21T14:38:58.860Z,2.90
2022-08-21T14:41:31.471Z,2.70
2022-08-21T14:44:09.604Z,2.77
2022-08-21T14:46:55.273Z,3.10
2022-08-21T14:49:29.679Z,2.90
2022-08-21T14:52:02.090Z,2.77
2022-08-21T14:54:34.907Z,2.80
2022-08-21T14:57:11.321Z,2.30
2022-08-21T14:59:44.506Z,2.77
2022-08-21T15:02:16.609Z,2.63
2022-08-21T15:04:50.510Z,2.77
2022-08-21T15:07:22.728Z,2.60
2022-08-21T15:09:54.959Z,2.70
2022-08-21T15:12:27.540Z,2.60
2022-08-21T15:14:59.958Z,3.20
2022-08-21T15:17:32.168Z,2.77
2022-08-21T15:20:05.800Z,2.73
2022-08-21T15:22:39.806Z,3.00
2022-08-21T15:25:19.612Z,2.60
2022-08-21T15:27:52.015Z,3.17
2022-08-21T15:30:24.200Z,2.77
2022-08-21T15:32:56.868Z,3.30
2022-08-21T15:35:29.145Z,2.80
2022-08-21T15:38:01.280Z,2.70
2022-08-21T15:40:35.139Z,3.20
2022-08-21T15:43:10.640Z,2.97
2022-08-21T15:45:54.540Z,2.77
2022-08-21T15:48:27.334Z,2.67
2022-08-21T15:50:59.839Z,2.90
2022-08-21T15:53:36.236Z,2.90
2022-08-21T15:56:24.104Z,2.60
2022-08-21T15:59:24.000Z,2.63
2022-08-21T16:01:57.220Z,2.80
2022-08-21T16:04:29.390Z,3.00
2022-08-21T16:07:06.581Z,2.93
2022-08-21T16:09:43.080Z,2.90
2022-08-21T16:12:23.628Z,3.20
2022-08-21T16:15:00.253Z,2.90
2022-08-21T16:17:36.159Z,2.30
2022-08-21T16:20:13.128Z,2.73
2022-08-21T16:22:49.408Z,2.73
2022-08-21T16:25:23.054Z,3.00
2022-08-21T16:28:00.275Z,2.90
2022-08-21T16:30:34.481Z,2.80
2022-08-21T16:33:08.660Z,3.30
2022-08-21T16:35:51.684Z,3.40
2022-08-21T16:38:24.283Z,3.10
2022-08-21T16:40:58.592Z,2.80
2022-08-21T16:43:31.669Z,2.77
2022-08-21T16:46:05.701Z,2.77
2022-08-21T16:48:39.457Z,3.30
2022-08-21T16:51:15.054Z,2.97
2022-08-21T16:53:47.701Z,3.17
2022-08-21T16:56:19.923Z,2.70
2022-08-21T16:58:54.717Z,3.20
2022-08-21T17:01:31.730Z,3.10
2022-08-21T17:04:05.796Z,3.23
2022-08-21T17:06:38.085Z,2.80
2022-08-21T17:09:10.291Z,2.87
2022-08-21T17:11:49.461Z,2.70
2022-08-21T17:14:23.907Z,3.30
2022-08-21T17:16:56.936Z,3.07
2022-08-21T17:19:30.438Z,2.90
2022-08-21T17:22:05.378Z,3.37
2022-08-21T17:24:38.846Z,2.87
2022-08-21T17:27:12.836Z,3.73
2022-08-21T17:29:45.051Z,3.10
2022-08-21T17:32:18.827Z,2.90
2022-08-21T17:34:51.174Z,3.10
2022-08-21T17:37:28.620Z,3.03
2022-08-21T17:40:02.166Z,3.30
2022-08-21T17:42:41.459Z,3.70
2022-08-21T17:45:18.250Z,3.10
2022-08-21T17:47:51.100Z,3.57
2022-08-21T17:50:23.545Z,2.90
2022-08-21T17:52:55.984Z,3.10
2022-08-21T17:55:29.753Z,3.30
2022-08-21T17:58:03.780Z,3.53
2022-08-21T18:00:37.074Z,3.30
2022-08-21T18:03:31.780Z,3.00
2022-08-21T18:06:11.454Z,3.27
2022-08-21T18:08:47.205Z,2.90
2022-08-21T18:11:23.466Z,2.90
2022-08-21T18:14:07.383Z,3.10
2022-08-21T18:16:42.318Z,2.90
2022-08-21T18:19:17.505Z,3.33
2022-08-21T18:21:58.773Z,3.53
2022-08-21T18:24:32.930Z,3.13
2022-08-21T18:27:09.843Z,3.50
2022-08-21T18:29:43.853Z,3.60
2022-08-21T18:32:31.502Z,3.30
2022-08-21T18:35:17.543Z,2.77
2022-08-21T18:37:49.887Z,3.10
2022-08-21T18:40:22.402Z,2.87
2022-08-21T18:42:55.733Z,3.13
2022-08-21T18:45:28.182Z,3.10
2022-08-21T18:48:03.591Z,3.67
2022-08-21T18:50:42.345Z,3.50
2022-08-21T18:53:27.325Z,3.30
2022-08-21T18:59:05.834Z,3.30
2022-08-21T19:01:38.988Z,2.73
2022-08-21T19:04:29.920Z,3.20
2022-08-21T19:07:07.260Z,3.27
2022-08-21T19:09:40.023Z,3.10
2022-08-21T19:12:18.357Z,2.77
2022-08-21T19:14:54.653Z,3.17
2022-08-21T19:17:27.913Z,2.60
2022-08-21T19:20:07.696Z,2.93
2022-08-21T19:23:01.307Z,3.13
2022-08-21T19:25:39.708Z,3.87
2022-08-21T19:28:29.673Z,2.90
2022-08-21T19:31:12.565Z,3.17
2022-08-21T19:33:59.675Z,2.80
2022-08-21T19:36:42.215Z,3.50
2022-08-21T19:39:16.302Z,3.20
2022-08-21T19:41:52.882Z,3.53
2022-08-21T19:44:30.801Z,3.23
2022-08-21T19:47:18.948Z,2.80
2022-08-21T19:49:56.557Z,3.30
2022-08-21T19:52:32.713Z,3.17
2022-08-21T19:55:10.674Z,3.37
2022-08-21T19:57:43.064Z,3.17
2022-08-21T20:00:17.266Z,3.00
2022-08-21T20:02:49.599Z,3.30
2022-08-21T20:05:22.916Z,3.73
2022-08-21T20:07:55.254Z,3.30
2022-08-21T20:10:27.646Z,3.93
2022-08-21T20:13:00.341Z,3.50
2022-08-21T20:15:32.805Z,3.47
2022-08-21T20:18:05.057Z,3.07
2022-08-21T20:20:39.626Z,3.70
2022-08-21T20:23:12.264Z,3.70
2022-08-21T20:25:47.242Z,3.40
2022-08-21T20:28:20.550Z,2.80
2022-08-21T20:30:53.880Z,3.03
2022-08-21T20:33:27.352Z,3.10
2022-08-21T20:35:59.803Z,3.27
2022-08-21T20:38:32.351Z,3.30
2022-08-21T20:41:09.951Z,3.13
2022-08-21T20:43:56.701Z,3.33
2022-08-21T20:46:32.023Z,3.30
2022-08-21T20:49:08.343Z,3.00
2022-08-21T20:51:49.493Z,3.13
2022-08-21T20:54:47.255Z,3.20
2022-08-21T20:57:35.972Z,3.60
2022-08-21T21:00:20.954Z,3.40
2022-08-21T21:03:30.167Z,3.60
2022-08-21T21:06:14.438Z,3.70
2022-08-21T21:09:00.400Z,3.00
2022-08-21T21:12:00.056Z,3.27
2022-08-21T21:14:47.088Z,3.70
2022-08-21T21:17:34.811Z,3.50
2022-08-21T21:20:22.618Z,3.87
2022-08-21T21:23:18.340Z,3.07
2022-08-21T21:26:18.082Z,3.40
2022-08-21T21:29:10.574Z,3.40
2022-08-21T21:31:52.910Z,3.10
2022-08-21T21:34:31.640Z,3.50
2022-08-21T21:37:39.679Z,3.60
2022-08-21T21:40:23.908Z,3.23
2022-08-21T21:43:48.194Z,3.70
2022-08-21T21:46:59.390Z,3.20
2022-08-21T21:50:04.058Z,3.83
2022-08-21T21:53:27.050Z,3.67
2022-08-21T21:56:43.923Z,3.23
2022-08-21T21:59:53.731Z,3.10
2022-08-21T22:03:05.563Z,3.40
2022-08-21T22:06:06.014Z,3.27
2022-08-21T22:09:02.954Z,3.50
2022-08-21T22:12:08.890Z,3.57
2022-08-21T22:15:00.789Z,3.57
2022-08-21T22:17:51.050Z,3.60
2022-08-21T22:20:51.193Z,3.27
2022-08-21T22:23:34.838Z,3.40
2022-08-21T22:26:20.763Z,3.53
2022-08-21T22:29:09.285Z,4.27
2022-08-21T22:32:07.629Z,3.10
2022-08-21T22:34:42.487Z,4.03
2022-08-21T22:37:39.781Z,4.00
2022-08-21T22:40:35.727Z,3.60
2022-08-21T22:43:18.285Z,3.23
2022-08-21T22:46:04.264Z,3.30
2022-08-21T22:49:25.296Z,2.90
2022-08-21T22:52:12.407Z,3.80
2022-08-21T22:54:57.594Z,3.47
2022-08-21T22:58:23.768Z,3.23
2022-08-21T23:01:29.200Z,2.67
2022-08-21T23:04:20.221Z,3.17
2022-08-21T23:06:59.107Z,3.37
2022-08-21T23:09:38.844Z,4.10
2022-08-21T23:12:33.053Z,3.77
2022-08-21T23:15:41.422Z,3.73
2022-08-21T23:18:36.030Z,3.70
2022-08-21T23:21:45.295Z,3.20
2022-08-21T23:25:01.613Z,3.70
2022-08-21T23:28:20.543Z,3.23
2022-08-21T23:31:25.106Z,4.00
2022-08-21T23:34:15.840Z,4.00
2022-08-21T23:37:49.151Z,4.50
2022-08-21T23:40:52.087Z,3.50
2022-08-21T23:43:41.657Z,3.90
2022-08-21T23:47:02.690Z,3.83
2022-08-21T23:50:18.608Z,3.50
2022-08-21T23:53:34.487Z,3.90
2022-08-21T23:56:44.735Z,3.73
